Gulf Breeze, FL (32561)

12:54 AM CST on December 06, 2016 (GMT -0600)
Ranchette Square | | Change Station

Elev 29 ft 30.39 °N, 87.10 °W | Updated 2 minutes ago

Heavy Thunderstorms and Rain
Heavy Thunderstorm Rain Mist
64.4 °F
Feels Like 64.4 °F
N
2.5
Wind Variable Wind from SSW
Gusts 9.9 mph

Today
High -- | Low -- °F
--% Chance of Precip.
Yesterday
High -- | Low -- °F
Precip. -- in
Pressure 29.68 in
Visibility 1.0 miles
Clouds Scattered Clouds 200 ft
Overcast 600 ft
Dew Point 64 °F
Humidity 99%
Rainfall 0.01 in
Snow Depth Not available.
6:31 AM 4:47 PM
Waxing Crescent, 39% visible
SPECI KPNS 060644Z AUTO 06005KT 1SM R17/4000VP6000FT +TSRA BR SCT002 OVC006 18/17 A2968 RMK AO2 LTG DSNT ALQDS RAB14 TSB38 P0021 T01780172
Pressure 29.68 in
Visibility 1.0 miles
Clouds Scattered Clouds 200 ft
Overcast 600 ft
Dew Point 64 °F
Humidity 99%
Rainfall 0.01 in
Snow Depth Not available.
6:31 AM 4:47 PM
Waxing Crescent, 39% visible
SPECI KPNS 060644Z AUTO 06005KT 1SM R17/4000VP6000FT +TSRA BR SCT002 OVC006 18/17 A2968 RMK AO2 LTG DSNT ALQDS RAB14 TSB38 P0021 T01780172

10-Day Weather Forecast

Almanac

Astronomy

Dec. 06, 2016 Rise Set
Actual Time
Civil Twilight
Nautical Twilight
Astronomical Twilight
Moon
Length of Visible Light
Length of Day
Tomorrow will be .
, % of the Moon is Illuminated

Today's Extremes

State Highs State Lows

Community

WunderPhotos

Upload Photos

1,955,932 photos uploaded!

WunderBlog® & News

Nearby

Air Quality

  Air Quality AQ Index Pollutant
Not available.

Snow Depth

Station Depth Elevation

Earthquake Activity

City Distance Mag. Time & Date
Minimum magnitude displayed is 2.5.

Coastal Water Temperatures

Place Temperature

Stations

Nearby Weather Stations

Station Location Temp. Windchill Dew Point Humidity Wind Precip. Elev Updated Type
                   

Watches & Warnings

There are currently no watches in effect.